sensor_id;sensor_type;location;lat;lon;timestamp;pressure;altitude;pressure_sealevel;temperature;humidity
15914;BME280;8055;51.930;8.840;2023-09-12T00:01:06;74560.56;;;-145.72;100.00
15914;BME280;8055;51.930;8.840;2023-09-12T00:03:32;74552.31;;;-145.72;100.00
15914;BME280;8055;51.930;8.840;2023-09-12T00:06:00;74556.44;;;-145.72;100.00
15914;BME280;8055;51.930;8.840;2023-09-12T00:08:26;74577.13;;;-145.72;100.00
15914;BME280;8055;51.930;8.840;2023-09-12T00:11:18;74575.06;;;-145.72;100.00
15914;BME280;8055;51.930;8.840;2023-09-12T00:13:44;74575.06;;;-145.72;100.00
15914;BME280;8055;51.930;8.840;2023-09-12T00:16:09;74579.19;;;-145.72;100.00
15914;BME280;8055;51.930;8.840;2023-09-12T00:18:36;74583.34;;;-145.72;100.00
15914;BME280;8055;51.930;8.840;2023-09-12T00:21:03;74579.19;;;-145.72;100.00
15914;BME280;8055;51.930;8.840;2023-09-12T00:23:28;74581.25;;;-145.72;100.00
15914;BME280;8055;51.930;8.840;2023-09-12T00:25:53;74597.81;;;-145.72;100.00
15914;BME280;8055;51.930;8.840;2023-09-12T00:28:20;74606.09;;;-145.72;100.00
15914;BME280;8055;51.930;8.840;2023-09-12T00:30:46;74606.09;;;-145.72;100.00
15914;BME280;8055;51.930;8.840;2023-09-12T00:33:11;74595.75;;;-145.72;100.00
15914;BME280;8055;51.930;8.840;2023-09-12T00:35:37;74601.94;;;-145.72;100.00
15914;BME280;8055;51.930;8.840;2023-09-12T00:38:02;74599.88;;;-145.72;100.00
15914;BME280;8055;51.930;8.840;2023-09-12T00:40:28;74614.34;;;-145.72;100.00
15914;BME280;8055;51.930;8.840;2023-09-12T00:42:54;74624.69;;;-145.72;100.00
15914;BME280;8055;51.930;8.840;2023-09-12T00:45:19;74604.00;;;-145.72;100.00
15914;BME280;8055;51.930;8.840;2023-09-12T00:47:45;74614.34;;;-145.72;100.00
15914;BME280;8055;51.930;8.840;2023-09-12T00:50:13;74616.44;;;-145.72;100.00
15914;BME280;8055;51.930;8.840;2023-09-12T00:52:40;74612.28;;;-145.72;100.00
15914;BME280;8055;51.930;8.840;2023-09-12T00:55:06;74610.22;;;-145.72;100.00
15914;BME280;8055;51.930;8.840;2023-09-12T00:57:33;74614.34;;;-145.72;100.00
15914;BME280;8055;51.930;8.840;2023-09-12T01:00:02;74608.16;;;-145.72;100.00
15914;BME280;8055;51.930;8.840;2023-09-12T01:02:40;74614.34;;;-145.72;100.00
15914;BME280;8055;51.930;8.840;2023-09-12T01:05:10;74599.88;;;-145.72;100.00
15914;BME280;8055;51.930;8.840;2023-09-12T01:07:36;74610.22;;;-145.72;100.00
15914;BME280;8055;51.930;8.840;2023-09-12T01:10:02;74622.63;;;-145.72;100.00
15914;BME280;8055;51.930;8.840;2023-09-12T01:12:28;74618.50;;;-145.72;100.00
15914;BME280;8055;51.930;8.840;2023-09-12T01:14:54;74628.84;;;-145.72;100.00
15914;BME280;8055;51.930;8.840;2023-09-12T01:17:20;74632.97;;;-145.72;100.00
15914;BME280;8055;51.930;8.840;2023-09-12T01:19:45;74622.63;;;-145.72;100.00
15914;BME280;8055;51.930;8.840;2023-09-12T01:28:25;74641.25;;;-145.72;100.00
15914;BME280;8055;51.930;8.840;2023-09-12T01:30:58;74645.38;;;-145.72;100.00
15914;BME280;8055;51.930;8.840;2023-09-12T01:33:23;74661.94;;;-145.72;100.00
15914;BME280;8055;51.930;8.840;2023-09-12T01:35:49;74678.50;;;-145.72;100.00
15914;BME280;8055;51.930;8.840;2023-09-12T01:38:15;74672.28;;;-145.72;100.00
15914;BME280;8055;51.930;8.840;2023-09-12T01:40:48;74672.28;;;-145.72;100.00
15914;BME280;8055;51.930;8.840;2023-09-12T01:43:16;74672.28;;;-145.72;100.00
15914;BME280;8055;51.930;8.840;2023-09-12T01:45:44;74690.91;;;-145.72;100.00
15914;BME280;8055;51.930;8.840;2023-09-12T01:48:11;74697.09;;;-145.72;100.00
15914;BME280;8055;51.930;8.840;2023-09-12T01:50:38;74688.84;;;-145.72;100.00
15914;BME280;8055;51.930;8.840;2023-09-12T01:53:04;74680.56;;;-145.72;100.00
15914;BME280;8055;51.930;8.840;2023-09-12T01:55:30;74690.91;;;-145.72;100.00
15914;BME280;8055;51.930;8.840;2023-09-12T01:57:56;74688.84;;;-145.72;100.00
15914;BME280;8055;51.930;8.840;2023-09-12T02:00:23;74705.38;;;-145.72;100.00
15914;BME280;8055;51.930;8.840;2023-09-12T02:02:48;74701.25;;;-145.72;100.00
15914;BME280;8055;51.930;8.840;2023-09-12T02:05:16;74699.19;;;-145.72;100.00
15914;BME280;8055;51.930;8.840;2023-09-12T02:07:44;74707.44;;;-145.72;100.00
15914;BME280;8055;51.930;8.840;2023-09-12T02:10:13;74703.31;;;-145.72;100.00
15914;BME280;8055;51.930;8.840;2023-09-12T02:12:39;74699.19;;;-145.72;100.00
15914;BME280;8055;51.930;8.840;2023-09-12T02:15:05;74695.03;;;-145.72;100.00
15914;BME280;8055;51.930;8.840;2023-09-12T02:17:30;74688.84;;;-145.72;100.00
15914;BME280;8055;51.930;8.840;2023-09-12T02:19:56;74701.25;;;-145.72;100.00
15914;BME280;8055;51.930;8.840;2023-09-12T02:22:21;74690.91;;;-145.72;100.00
15914;BME280;8055;51.930;8.840;2023-09-12T02:24:53;74674.34;;;-145.72;100.00
15914;BME280;8055;51.930;8.840;2023-09-12T02:27:18;74678.50;;;-145.72;100.00
15914;BME280;8055;51.930;8.840;2023-09-12T02:29:44;74672.28;;;-145.72;100.00
15914;BME280;8055;51.930;8.840;2023-09-12T02:32:12;74666.06;;;-145.72;100.00
15914;BME280;8055;51.930;8.840;2023-09-12T02:34:38;74672.28;;;-145.72;100.00
15914;BME280;8055;51.930;8.840;2023-09-12T02:37:04;74682.63;;;-145.72;100.00
15914;BME280;8055;51.930;8.840;2023-09-12T02:39:29;74688.84;;;-145.72;100.00
15914;BME280;8055;51.930;8.840;2023-09-12T02:41:54;74682.63;;;-145.72;100.00
15914;BME280;8055;51.930;8.840;2023-09-12T02:44:20;74705.38;;;-145.72;100.00
15914;BME280;8055;51.930;8.840;2023-09-12T02:46:45;74721.94;;;-145.72;100.00
15914;BME280;8055;51.930;8.840;2023-09-12T02:49:11;74744.69;;;-145.72;100.00
15914;BME280;8055;51.930;8.840;2023-09-12T02:51:39;74779.84;;;-145.72;100.00
15914;BME280;8055;51.930;8.840;2023-09-12T02:54:05;74790.19;;;-145.72;100.00
15914;BME280;8055;51.930;8.840;2023-09-12T02:56:31;74781.91;;;-145.72;100.00
15914;BME280;8055;51.930;8.840;2023-09-12T02:58:56;74765.38;;;-145.72;100.00
15914;BME280;8055;51.930;8.840;2023-09-12T03:01:22;74755.03;;;-145.72;100.00
15914;BME280;8055;51.930;8.840;2023-09-12T03:03:48;74738.47;;;-145.72;100.00
15914;BME280;8055;51.930;8.840;2023-09-12T03:06:14;74726.06;;;-145.72;100.00
15914;BME280;8055;51.930;8.840;2023-09-12T03:08:41;74711.59;;;-145.72;100.00
15914;BME280;8055;51.930;8.840;2023-09-12T03:11:06;74703.31;;;-145.72;100.00
15914;BME280;8055;51.930;8.840;2023-09-12T03:13:33;74695.03;;;-145.72;100.00
15914;BME280;8055;51.930;8.840;2023-09-12T03:15:59;74684.69;;;-145.72;100.00
15914;BME280;8055;51.930;8.840;2023-09-12T03:18:25;74668.16;;;-145.72;100.00
15914;BME280;8055;51.930;8.840;2023-09-12T03:20:50;74664.00;;;-145.72;100.00
15914;BME280;8055;51.930;8.840;2023-09-12T03:23:16;74657.81;;;-145.72;100.00
15914;BME280;8055;51.930;8.840;2023-09-12T03:25:41;74649.53;;;-145.72;100.00
15914;BME280;8055;51.930;8.840;2023-09-12T03:28:08;74647.47;;;-145.72;100.00
15914;BME280;8055;51.930;8.840;2023-09-12T03:30:35;74649.53;;;-145.72;100.00
15914;BME280;8055;51.930;8.840;2023-09-12T03:33:00;74645.38;;;-145.72;100.00
15914;BME280;8055;51.930;8.840;2023-09-12T03:35:28;74645.38;;;-145.72;100.00
15914;BME280;8055;51.930;8.840;2023-09-12T03:37:53;74635.03;;;-145.72;100.00
15914;BME280;8055;51.930;8.840;2023-09-12T03:40:19;74632.97;;;-145.72;100.00
15914;BME280;8055;51.930;8.840;2023-09-12T03:42:44;74630.91;;;-145.72;100.00
15914;BME280;8055;51.930;8.840;2023-09-12T03:45:10;74632.97;;;-145.72;100.00
15914;BME280;8055;51.930;8.840;2023-09-12T03:47:35;74639.19;;;-145.72;100.00
15914;BME280;8055;51.930;8.840;2023-09-12T03:50:01;74632.97;;;-145.72;100.00
15914;BME280;8055;51.930;8.840;2023-09-12T03:52:27;74645.38;;;-145.72;100.00
15914;BME280;8055;51.930;8.840;2023-09-12T03:54:53;74655.72;;;-145.72;100.00
15914;BME280;8055;51.930;8.840;2023-09-12T03:57:18;74668.16;;;-145.72;100.00
15914;BME280;8055;51.930;8.840;2023-09-12T03:59:44;74670.22;;;-145.72;100.00
15914;BME280;8055;51.930;8.840;2023-09-12T04:02:12;74692.97;;;-145.72;100.00
15914;BME280;8055;51.930;8.840;2023-09-12T04:04:37;74686.75;;;-145.72;100.00
15914;BME280;8055;51.930;8.840;2023-09-12T04:07:03;74686.75;;;-145.72;100.00
15914;BME280;8055;51.930;8.840;2023-09-12T04:09:29;74688.84;;;-145.72;100.00
15914;BME280;8055;51.930;8.840;2023-09-12T04:11:54;74690.91;;;-145.72;100.00
15914;BME280;8055;51.930;8.840;2023-09-12T04:14:20;74705.38;;;-145.72;100.00
15914;BME280;8055;51.930;8.840;2023-09-12T04:16:46;74711.59;;;-145.72;100.00
15914;BME280;8055;51.930;8.840;2023-09-12T04:19:13;74721.94;;;-145.72;100.00
15914;BME280;8055;51.930;8.840;2023-09-12T04:21:39;74738.47;;;-145.72;100.00
15914;BME280;8055;51.930;8.840;2023-09-12T04:24:05;74730.22;;;-145.72;100.00
15914;BME280;8055;51.930;8.840;2023-09-12T04:26:31;74726.06;;;-145.72;100.00
15914;BME280;8055;51.930;8.840;2023-09-12T04:28:56;74736.41;;;-145.72;100.00
15914;BME280;8055;51.930;8.840;2023-09-12T04:31:22;74728.13;;;-145.72;100.00
15914;BME280;8055;51.930;8.840;2023-09-12T04:33:47;74721.94;;;-145.72;100.00
15914;BME280;8055;51.930;8.840;2023-09-12T04:36:12;74707.44;;;-145.72;100.00
15914;BME280;8055;51.930;8.840;2023-09-12T04:38:38;74690.91;;;-145.72;100.00
15914;BME280;8055;51.930;8.840;2023-09-12T04:41:03;74686.75;;;-145.72;100.00
15914;BME280;8055;51.930;8.840;2023-09-12T04:43:31;74697.09;;;-145.72;100.00
15914;BME280;8055;51.930;8.840;2023-09-12T04:45:57;74690.91;;;-145.72;100.00
15914;BME280;8055;51.930;8.840;2023-09-12T04:48:22;74699.19;;;-145.72;100.00
15914;BME280;8055;51.930;8.840;2023-09-12T04:50:48;74690.91;;;-145.72;100.00
15914;BME280;8055;51.930;8.840;2023-09-12T04:53:14;74692.97;;;-145.72;100.00
15914;BME280;8055;51.930;8.840;2023-09-12T04:55:39;74697.09;;;-145.72;100.00
15914;BME280;8055;51.930;8.840;2023-09-12T04:58:05;74717.78;;;-145.72;100.00
15914;BME280;8055;51.930;8.840;2023-09-12T05:00:32;74715.72;;;-145.72;100.00
15914;BME280;8055;51.930;8.840;2023-09-12T05:02:57;74719.88;;;-145.72;100.00
15914;BME280;8055;51.930;8.840;2023-09-12T05:05:22;74707.44;;;-145.72;100.00
15914;BME280;8055;51.930;8.840;2023-09-12T05:07:48;74703.31;;;-145.72;100.00
15914;BME280;8055;51.930;8.840;2023-09-12T05:10:13;74703.31;;;-145.72;100.00
15914;BME280;8055;51.930;8.840;2023-09-12T05:12:39;74690.91;;;-145.72;100.00
15914;BME280;8055;51.930;8.840;2023-09-12T05:15:05;74697.09;;;-145.72;100.00
15914;BME280;8055;51.930;8.840;2023-09-12T05:17:30;74707.44;;;-145.72;100.00
15914;BME280;8055;51.930;8.840;2023-09-12T05:19:56;74701.25;;;-145.72;100.00
15914;BME280;8055;51.930;8.840;2023-09-12T05:22:21;74701.25;;;-145.72;100.00
15914;BME280;8055;51.930;8.840;2023-09-12T05:24:47;74707.44;;;-145.72;100.00
15914;BME280;8055;51.930;8.840;2023-09-12T05:27:12;74703.31;;;-145.72;100.00
15914;BME280;8055;51.930;8.840;2023-09-12T05:29:38;74701.25;;;-145.72;100.00
15914;BME280;8055;51.930;8.840;2023-09-12T05:32:04;74695.03;;;-145.72;100.00
15914;BME280;8055;51.930;8.840;2023-09-12T05:34:29;74686.75;;;-145.72;100.00
15914;BME280;8055;51.930;8.840;2023-09-12T05:36:56;74680.56;;;-145.72;100.00
15914;BME280;8055;51.930;8.840;2023-09-12T05:39:21;74668.16;;;-145.72;100.00
15914;BME280;8055;51.930;8.840;2023-09-12T05:41:47;74655.72;;;-145.72;100.00
15914;BME280;8055;51.930;8.840;2023-09-12T05:44:12;74643.31;;;-145.72;100.00
15914;BME280;8055;51.930;8.840;2023-09-12T05:46:43;74624.69;;;-145.72;100.00
15914;BME280;8055;51.930;8.840;2023-09-12T05:49:08;74604.00;;;-145.72;100.00
15914;BME280;8055;51.930;8.840;2023-09-12T05:51:34;74595.75;;;-145.72;100.00
15914;BME280;8055;51.930;8.840;2023-09-12T05:53:59;74599.88;;;-145.72;100.00
15914;BME280;8055;51.930;8.840;2023-09-12T05:56:26;74595.75;;;-145.72;100.00
15914;BME280;8055;51.930;8.840;2023-09-12T05:58:52;74579.19;;;-145.72;100.00
15914;BME280;8055;51.930;8.840;2023-09-12T06:01:17;74556.44;;;-145.72;100.00
15914;BME280;8055;51.930;8.840;2023-09-12T06:03:43;74558.50;;;-145.72;100.00
15914;BME280;8055;51.930;8.840;2023-09-12T06:06:08;74550.22;;;-145.72;100.00
15914;BME280;8055;51.930;8.840;2023-09-12T06:08:34;74544.03;;;-145.72;100.00
15914;BME280;8055;51.930;8.840;2023-09-12T06:10:59;74529.53;;;-145.72;100.00
15914;BME280;8055;51.930;8.840;2023-09-12T06:13:24;74521.28;;;-145.72;100.00
15914;BME280;8055;51.930;8.840;2023-09-12T06:15:53;74517.13;;;-145.72;100.00
15914;BME280;8055;51.930;8.840;2023-09-12T06:18:18;74502.66;;;-145.72;100.00
15914;BME280;8055;51.930;8.840;2023-09-12T06:20:45;74488.19;;;-145.72;100.00
15914;BME280;8055;51.930;8.840;2023-09-12T06:23:10;74475.75;;;-145.72;100.00
15914;BME280;8055;51.930;8.840;2023-09-12T06:25:35;74473.69;;;-145.72;100.00
15914;BME280;8055;51.930;8.840;2023-09-12T06:28:01;74459.22;;;-145.72;100.00
15914;BME280;8055;51.930;8.840;2023-09-12T06:30:26;74450.94;;;-145.72;100.00
15914;BME280;8055;51.930;8.840;2023-09-12T06:32:51;74444.72;;;-145.72;100.00
15914;BME280;8055;51.930;8.840;2023-09-12T06:35:17;74438.53;;;-145.72;100.00
15914;BME280;8055;51.930;8.840;2023-09-12T06:37:43;74446.81;;;-145.72;100.00
15914;BME280;8055;51.930;8.840;2023-09-12T06:40:09;74438.53;;;-145.72;100.00
15914;BME280;8055;51.930;8.840;2023-09-12T06:42:34;74442.66;;;-145.72;100.00
15914;BME280;8055;51.930;8.840;2023-09-12T06:45:00;74436.47;;;-145.72;98.79
15914;BME280;8055;51.930;8.840;2023-09-12T06:47:25;74426.13;;;-145.72;97.27
15914;BME280;8055;51.930;8.840;2023-09-12T06:49:50;74426.13;;;-145.72;96.97
15914;BME280;8055;51.930;8.840;2023-09-12T06:52:16;74413.72;;;-145.72;99.41
15914;BME280;8055;51.930;8.840;2023-09-12T06:54:41;74415.78;;;-145.72;96.86
15914;BME280;8055;51.930;8.840;2023-09-12T06:57:07;74419.91;;;-145.72;96.28
15914;BME280;8055;51.930;8.840;2023-09-12T06:59:33;74413.72;;;-145.72;98.02
15914;BME280;8055;51.930;8.840;2023-09-12T07:01:58;74421.97;;;-145.72;95.35
15914;BME280;8055;51.930;8.840;2023-09-12T07:04:24;74421.97;;;-145.72;96.94
15914;BME280;8055;51.930;8.840;2023-09-12T07:06:49;74409.56;;;-145.72;97.08
15914;BME280;8055;51.930;8.840;2023-09-12T07:09:16;74417.84;;;-145.72;95.85
15914;BME280;8055;51.930;8.840;2023-09-12T07:11:42;74409.56;;;-145.72;95.08
15914;BME280;8055;51.930;8.840;2023-09-12T07:14:08;74413.72;;;-145.72;94.66
15914;BME280;8055;51.930;8.840;2023-09-12T07:16:35;74421.97;;;-145.72;94.54
15914;BME280;8055;51.930;8.840;2023-09-12T07:19:01;74417.84;;;-145.72;98.10
15914;BME280;8055;51.930;8.840;2023-09-12T07:21:26;74407.50;;;-145.72;96.40
15914;BME280;8055;51.930;8.840;2023-09-12T07:23:52;74403.38;;;-145.72;95.12
15914;BME280;8055;51.930;8.840;2023-09-12T07:26:17;74388.88;;;-145.72;96.29
15914;BME280;8055;51.930;8.840;2023-09-12T07:28:43;74380.63;;;-145.72;96.56
15914;BME280;8055;51.930;8.840;2023-09-12T07:31:08;74386.81;;;-145.72;93.50
15914;BME280;8055;51.930;8.840;2023-09-12T07:33:34;74388.88;;;-145.72;93.91
15914;BME280;8055;51.930;8.840;2023-09-12T07:35:59;74399.22;;;-145.72;89.08
15914;BME280;8055;51.930;8.840;2023-09-12T07:38:25;74424.06;;;-145.72;89.60
15914;BME280;8055;51.930;8.840;2023-09-12T07:40:51;74434.41;;;-145.72;89.03
15914;BME280;8055;51.930;8.840;2023-09-12T07:43:17;74448.88;;;-145.72;91.22
15914;BME280;8055;51.930;8.840;2023-09-12T07:45:43;74448.88;;;-145.72;93.78
15914;BME280;8055;51.930;8.840;2023-09-12T07:48:09;74467.50;;;-145.72;96.89
15914;BME280;8055;51.930;8.840;2023-09-12T07:50:37;74494.38;;;-145.72;93.44
15914;BME280;8055;51.930;8.840;2023-09-12T07:53:07;74496.44;;;-145.72;90.55
15914;BME280;8055;51.930;8.840;2023-09-12T07:55:39;74517.13;;;-145.72;89.92
15914;BME280;8055;51.930;8.840;2023-09-12T07:58:19;74537.81;;;-145.72;89.86
15914;BME280;8055;51.930;8.840;2023-09-12T08:00:45;74566.78;;;-145.72;89.72
15914;BME280;8055;51.930;8.840;2023-09-12T08:03:11;74597.81;;;-145.72;91.19
15914;BME280;8055;51.930;8.840;2023-09-12T08:05:39;74599.88;;;-145.72;93.47
15914;BME280;8055;51.930;8.840;2023-09-12T08:08:05;74610.22;;;-145.72;94.63
15914;BME280;8055;51.930;8.840;2023-09-12T08:10:30;74622.63;;;-145.72;93.98
15914;BME280;8055;51.930;8.840;2023-09-12T08:12:56;74628.84;;;-145.72;93.15
15914;BME280;8055;51.930;8.840;2023-09-12T08:15:21;74647.47;;;-145.72;94.44
15914;BME280;8055;51.930;8.840;2023-09-12T08:17:46;74664.00;;;-145.72;94.30
15914;BME280;8055;51.930;8.840;2023-09-12T08:20:17;74672.28;;;-145.72;96.31
15914;BME280;8055;51.930;8.840;2023-09-12T08:22:42;74701.25;;;-145.72;96.14
15914;BME280;8055;51.930;8.840;2023-09-12T08:25:08;74721.94;;;-145.72;95.77
15914;BME280;8055;51.930;8.840;2023-09-12T08:27:35;74734.34;;;-145.72;97.25
15914;BME280;8055;51.930;8.840;2023-09-12T08:30:01;74742.63;;;-145.72;98.72
15914;BME280;8055;51.930;8.840;2023-09-12T08:32:26;74765.38;;;-145.72;100.00
15914;BME280;8055;51.930;8.840;2023-09-12T08:34:52;74777.78;;;-145.72;99.17
15914;BME280;8055;51.930;8.840;2023-09-12T08:37:17;74786.06;;;-145.72;100.00
15914;BME280;8055;51.930;8.840;2023-09-12T08:39:44;74798.47;;;-145.72;100.00
15914;BME280;8055;51.930;8.840;2023-09-12T08:42:15;74798.47;;;-145.72;100.00
15914;BME280;8055;51.930;8.840;2023-09-12T08:44:41;74792.25;;;-145.72;100.00
15914;BME280;8055;51.930;8.840;2023-09-12T08:47:08;74802.63;;;-145.72;100.00
15914;BME280;8055;51.930;8.840;2023-09-12T08:49:37;74819.16;;;-145.72;100.00
15914;BME280;8055;51.930;8.840;2023-09-12T08:52:04;74802.63;;;-145.72;100.00
15914;BME280;8055;51.930;8.840;2023-09-12T08:54:34;74806.75;;;-145.72;100.00
15914;BME280;8055;51.930;8.840;2023-09-12T08:57:03;74815.03;;;-145.72;100.00
15914;BME280;8055;51.930;8.840;2023-09-12T08:59:31;74815.03;;;-145.72;100.00
15914;BME280;8055;51.930;8.840;2023-09-12T09:01:57;74827.44;;;-145.72;100.00
15914;BME280;8055;51.930;8.840;2023-09-12T09:04:24;74850.19;;;-145.72;100.00
15914;BME280;8055;51.930;8.840;2023-09-12T09:06:52;74848.13;;;-145.72;100.00
15914;BME280;8055;51.930;8.840;2023-09-12T09:09:20;74852.25;;;-145.72;100.00
15914;BME280;8055;51.930;8.840;2023-09-12T09:11:46;74827.44;;;-145.72;100.00
15914;BME280;8055;51.930;8.840;2023-09-12T09:14:11;74806.75;;;-145.72;100.00
15914;BME280;8055;51.930;8.840;2023-09-12T09:16:37;74794.34;;;-145.72;100.00
15914;BME280;8055;51.930;8.840;2023-09-12T09:19:03;74798.47;;;-145.72;100.00
15914;BME280;8055;51.930;8.840;2023-09-12T09:21:35;74808.81;;;-145.72;100.00
15914;BME280;8055;51.930;8.840;2023-09-12T09:24:07;74798.47;;;-145.72;100.00
15914;BME280;8055;51.930;8.840;2023-09-12T09:26:42;74800.53;;;-145.72;100.00
15914;BME280;8055;51.930;8.840;2023-09-12T09:29:10;74800.53;;;-145.72;100.00
15914;BME280;8055;51.930;8.840;2023-09-12T09:31:40;74790.19;;;-145.72;100.00
15914;BME280;8055;51.930;8.840;2023-09-12T09:34:10;74777.78;;;-145.72;100.00
15914;BME280;8055;51.930;8.840;2023-09-12T09:36:40;74771.56;;;-145.72;100.00
15914;BME280;8055;51.930;8.840;2023-09-12T09:39:06;74775.72;;;-145.72;100.00
15914;BME280;8055;51.930;8.840;2023-09-12T09:41:33;74771.56;;;-145.72;100.00
15914;BME280;8055;51.930;8.840;2023-09-12T09:43:59;74769.50;;;-145.72;100.00
15914;BME280;8055;51.930;8.840;2023-09-12T09:46:25;74771.56;;;-145.72;100.00
15914;BME280;8055;51.930;8.840;2023-09-12T09:48:51;74759.16;;;-145.72;100.00
15914;BME280;8055;51.930;8.840;2023-09-12T09:51:17;74761.22;;;-145.72;100.00
15914;BME280;8055;51.930;8.840;2023-09-12T09:53:42;74752.97;;;-145.72;100.00
15914;BME280;8055;51.930;8.840;2023-09-12T09:56:13;74742.63;;;-145.72;100.00
15914;BME280;8055;51.930;8.840;2023-09-12T09:58:53;74744.69;;;-145.72;100.00
15914;BME280;8055;51.930;8.840;2023-09-12T10:01:20;74746.75;;;-145.72;100.00
15914;BME280;8055;51.930;8.840;2023-09-12T10:03:47;74740.56;;;-145.72;100.00
15914;BME280;8055;51.930;8.840;2023-09-12T10:06:15;74728.13;;;-145.72;100.00
15914;BME280;8055;51.930;8.840;2023-09-12T10:08:49;74742.63;;;-145.72;100.00
15914;BME280;8055;51.930;8.840;2023-09-12T10:11:15;74752.97;;;-145.72;100.00
15914;BME280;8055;51.930;8.840;2023-09-12T10:13:57;74757.09;;;-145.72;100.00
15914;BME280;8055;51.930;8.840;2023-09-12T10:16:35;74740.56;;;-145.72;100.00
15914;BME280;8055;51.930;8.840;2023-09-12T10:19:22;74740.56;;;-145.72;100.00
15914;BME280;8055;51.930;8.840;2023-09-12T10:24:27;74771.56;;;-145.72;100.00
15914;BME280;8055;51.930;8.840;2023-09-12T10:26:53;74798.47;;;-145.72;100.00
15914;BME280;8055;51.930;8.840;2023-09-12T10:29:20;74819.16;;;-145.72;100.00
15914;BME280;8055;51.930;8.840;2023-09-12T10:31:48;74821.22;;;-145.72;100.00
15914;BME280;8055;51.930;8.840;2023-09-12T10:34:14;74815.03;;;-145.72;100.00
15914;BME280;8055;51.930;8.840;2023-09-12T10:36:41;74819.16;;;-145.72;100.00
15914;BME280;8055;51.930;8.840;2023-09-12T10:39:09;74831.56;;;-145.72;100.00
15914;BME280;8055;51.930;8.840;2023-09-12T10:41:39;74841.91;;;-145.72;100.00
15914;BME280;8055;51.930;8.840;2023-09-12T10:44:10;74858.47;;;-145.72;100.00
15914;BME280;8055;51.930;8.840;2023-09-12T10:46:38;74852.25;;;-145.72;100.00
15914;BME280;8055;51.930;8.840;2023-09-12T10:49:09;74839.84;;;-145.72;100.00
15914;BME280;8055;51.930;8.840;2023-09-12T10:51:43;74817.09;;;-145.72;100.00
15914;BME280;8055;51.930;8.840;2023-09-12T10:54:14;74794.34;;;-145.72;100.00
15914;BME280;8055;51.930;8.840;2023-09-12T10:56:40;74794.34;;;-145.72;100.00
15914;BME280;8055;51.930;8.840;2023-09-12T11:01:42;74848.13;;;-145.72;100.00
15914;BME280;8055;51.930;8.840;2023-09-12T11:06:47;74852.25;;;-145.72;100.00
15914;BME280;8055;51.930;8.840;2023-09-12T11:11:42;74862.59;;;-145.72;100.00
15914;BME280;8055;51.930;8.840;2023-09-12T11:14:09;74854.31;;;-145.72;100.00
15914;BME280;8055;51.930;8.840;2023-09-12T11:16:35;74860.53;;;-145.72;100.00
15914;BME280;8055;51.930;8.840;2023-09-12T11:19:42;74852.25;;;-145.72;100.00
15914;BME280;8055;51.930;8.840;2023-09-12T11:22:21;74850.19;;;-145.72;100.00
15914;BME280;8055;51.930;8.840;2023-09-12T11:24:47;74852.25;;;-145.72;100.00
15914;BME280;8055;51.930;8.840;2023-09-12T11:27:12;74835.72;;;-145.72;100.00
15914;BME280;8055;51.930;8.840;2023-09-12T11:29:39;74829.50;;;-145.72;100.00
15914;BME280;8055;51.930;8.840;2023-09-12T11:32:05;74821.22;;;-145.72;100.00
15914;BME280;8055;51.930;8.840;2023-09-12T11:34:42;74798.47;;;-145.72;100.00
15914;BME280;8055;51.930;8.840;2023-09-12T11:37:08;74794.34;;;-145.72;100.00
15914;BME280;8055;51.930;8.840;2023-09-12T11:39:39;74796.41;;;-145.72;100.00
15914;BME280;8055;51.930;8.840;2023-09-12T11:42:04;74804.69;;;-145.72;100.00
15914;BME280;8055;51.930;8.840;2023-09-12T11:44:34;74815.03;;;-145.72;100.00
15914;BME280;8055;51.930;8.840;2023-09-12T11:47:00;74815.03;;;-145.72;100.00
15914;BME280;8055;51.930;8.840;2023-09-12T11:49:40;74796.41;;;-145.72;100.00
15914;BME280;8055;51.930;8.840;2023-09-12T11:52:12;74796.41;;;-145.72;100.00
15914;BME280;8055;51.930;8.840;2023-09-12T11:54:38;74798.47;;;-145.72;100.00
15914;BME280;8055;51.930;8.840;2023-09-12T11:57:04;74786.06;;;-145.72;100.00
15914;BME280;8055;51.930;8.840;2023-09-12T11:59:30;74759.16;;;-145.72;100.00
15914;BME280;8055;51.930;8.840;2023-09-12T12:01:55;74746.75;;;-145.72;100.00
15914;BME280;8055;51.930;8.840;2023-09-12T12:04:22;74736.41;;;-145.72;100.00
15914;BME280;8055;51.930;8.840;2023-09-12T12:06:49;74701.25;;;-145.72;100.00
15914;BME280;8055;51.930;8.840;2023-09-12T12:09:16;74664.00;;;-145.72;100.00
15914;BME280;8055;51.930;8.840;2023-09-12T12:11:44;74653.66;;;-145.72;100.00
15914;BME280;8055;51.930;8.840;2023-09-12T12:16:36;74632.97;;;-145.72;100.00
15914;BME280;8055;51.930;8.840;2023-09-12T12:19:02;74608.16;;;-145.72;100.00
15914;BME280;8055;51.930;8.840;2023-09-12T12:21:27;74608.16;;;-145.72;100.00
15914;BME280;8055;51.930;8.840;2023-09-12T12:24:02;74577.13;;;-145.72;100.00
15914;BME280;8055;51.930;8.840;2023-09-12T12:26:30;74544.03;;;-145.72;100.00
15914;BME280;8055;51.930;8.840;2023-09-12T12:28:55;74519.19;;;-145.72;100.00
15914;BME280;8055;51.930;8.840;2023-09-12T12:31:22;74463.34;;;-145.72;100.00
15914;BME280;8055;51.930;8.840;2023-09-12T12:33:50;74421.97;;;-145.72;100.00
15914;BME280;8055;51.930;8.840;2023-09-12T12:36:17;74343.38;;;-145.72;100.00
15914;BME280;8055;51.930;8.840;2023-09-12T12:38:45;74308.22;;;-145.72;97.69
15914;BME280;8055;51.930;8.840;2023-09-12T12:41:12;74262.72;;;-145.72;100.00
15914;BME280;8055;51.930;8.840;2023-09-12T12:43:40;74231.69;;;-145.72;94.44
15914;BME280;8055;51.930;8.840;2023-09-12T12:46:10;74225.47;;;-145.72;87.25
15914;BME280;8055;51.930;8.840;2023-09-12T12:48:38;74196.50;;;-145.72;86.39
15914;BME280;8055;51.930;8.840;2023-09-12T12:51:17;74165.50;;;-145.72;87.72
15914;BME280;8055;51.930;8.840;2023-09-12T12:53:51;74159.28;;;-145.72;84.88
15914;BME280;8055;51.930;8.840;2023-09-12T12:56:18;74175.84;;;-145.72;83.56
15914;BME280;8055;51.930;8.840;2023-09-12T12:58:59;74157.22;;;-145.72;80.76
15914;BME280;8055;51.930;8.840;2023-09-12T13:01:28;74136.53;;;-145.72;83.84